Time;durP1;ratioP1;P1;durP2;ratioP2;P2;SDS_P1;SDS_P2;PMS_P1;PMS_P2;Temp;Humidity;BMP_temperature;BMP_pressure;BME280_temperature;BME280_humidity;BME280_pressure;Samples;Min_cycle;Max_cycle;Signal;HPM_P1;HPM_P2
2024/03/25 00:01:25;;;;;;;2.10;1.33;;;;;;;;;;5094520;28;20852;-79
2024/03/25 00:03:51;;;;;;;3.08;1.40;;;;;;;;;;5076399;28;20374;-79
2024/03/25 00:06:17;;;;;;;2.60;1.17;;;;;;;;;;5094814;28;20385;-79
2024/03/25 00:08:43;;;;;;;1.95;1.02;;;;;;;;;;5073982;28;20420;-77
2024/03/25 00:11:09;;;;;;;2.70;1.50;;;;;;;;;;5092879;28;20485;-76
2024/03/25 00:13:35;;;;;;;2.50;1.30;;;;;;;;;;5092510;28;20494;-77
2024/03/25 00:16:01;;;;;;;2.05;1.30;;;;;;;;;;5075583;28;20405;-79
2024/03/25 00:18:27;;;;;;;2.72;1.48;;;;;;;;;;5094715;28;20420;-79
2024/03/25 00:20:53;;;;;;;2.10;1.20;;;;;;;;;;5076691;28;20378;-79
2024/03/25 00:23:20;;;;;;;1.80;1.30;;;;;;;;;;5094306;28;20918;-79
2024/03/25 00:25:46;;;;;;;2.65;1.65;;;;;;;;;;5094229;28;20378;-78
2024/03/25 00:28:12;;;;;;;2.63;1.60;;;;;;;;;;5093771;28;20901;-79
2024/03/25 00:30:38;;;;;;;3.58;2.03;;;;;;;;;;5076161;28;20481;-79
2024/03/25 00:33:06;;;;;;;2.93;1.90;;;;;;;;;;5094016;28;20762;-78
2024/03/25 00:35:32;;;;;;;4.15;2.00;;;;;;;;;;5093998;28;20382;-79
2024/03/25 00:38:00;;;;;;;1.92;1.50;;;;;;;;;;5092708;28;21383;-79
2024/03/25 00:40:26;;;;;;;4.40;1.90;;;;;;;;;;5075864;28;20382;-78
2024/03/25 00:42:52;;;;;;;2.95;2.10;;;;;;;;;;5093244;28;20393;-78
2024/03/25 00:45:18;;;;;;;4.80;2.13;;;;;;;;;;5093541;28;20424;-78
2024/03/25 00:47:44;;;;;;;3.17;2.35;;;;;;;;;;5093309;28;20425;-78
2024/03/25 00:50:10;;;;;;;3.92;2.03;;;;;;;;;;5093355;28;20417;-78
2024/03/25 00:52:36;;;;;;;2.83;2.30;;;;;;;;;;5093113;28;20396;-78
2024/03/25 00:55:02;;;;;;;4.00;2.53;;;;;;;;;;5093904;28;20521;-78
2024/03/25 00:57:29;;;;;;;4.43;2.47;;;;;;;;;;5093365;28;20437;-78
2024/03/25 00:59:55;;;;;;;3.55;2.13;;;;;;;;;;5093084;28;20397;-78
2024/03/25 01:02:21;;;;;;;5.22;2.28;;;;;;;;;;5092971;28;20427;-79
2024/03/25 01:04:47;;;;;;;3.42;2.13;;;;;;;;;;5093471;28;20386;-78
2024/03/25 01:07:13;;;;;;;2.50;1.90;;;;;;;;;;5092864;28;20452;-78
2024/03/25 01:09:39;;;;;;;5.95;2.30;;;;;;;;;;5091944;28;20508;-78
2024/03/25 01:12:05;;;;;;;2.80;1.80;;;;;;;;;;5092293;28;20417;-79
2024/03/25 01:14:31;;;;;;;2.55;2.03;;;;;;;;;;5092406;28;20877;-78
2024/03/25 01:16:57;;;;;;;3.45;2.42;;;;;;;;;;5092003;28;20501;-79
2024/03/25 01:19:23;;;;;;;4.10;2.20;;;;;;;;;;5090789;28;20394;-78
2024/03/25 01:21:50;;;;;;;2.38;1.90;;;;;;;;;;5092108;28;20382;-78
2024/03/25 01:24:15;;;;;;;4.00;2.13;;;;;;;;;;5092106;28;20400;-78
2024/03/25 01:26:42;;;;;;;2.70;2.10;;;;;;;;;;5092465;28;20382;-78
2024/03/25 01:29:07;;;;;;;3.45;2.22;;;;;;;;;;5092482;28;20836;-78
2024/03/25 01:31:34;;;;;;;3.37;2.40;;;;;;;;;;5092271;28;20434;-78
2024/03/25 01:34:00;;;;;;;3.88;2.30;;;;;;;;;;5092490;28;20390;-78
2024/03/25 01:36:26;;;;;;;2.70;2.30;;;;;;;;;;5092218;28;20401;-78
2024/03/25 01:38:53;;;;;;;2.42;2.22;;;;;;;;;;5092351;28;20743;-78
2024/03/25 01:41:22;;;;;;;3.50;2.00;;;;;;;;;;5092706;28;20382;-78
2024/03/25 01:43:48;;;;;;;3.00;1.98;;;;;;;;;;5092884;28;20510;-79
2024/03/25 01:46:15;;;;;;;3.42;2.35;;;;;;;;;;5092616;28;20383;-79
2024/03/25 01:48:42;;;;;;;2.53;2.20;;;;;;;;;;5092410;28;20697;-79
2024/03/25 01:51:08;;;;;;;3.53;1.90;;;;;;;;;;5092635;28;20389;-79
2024/03/25 01:53:34;;;;;;;3.00;1.77;;;;;;;;;;5092261;28;20374;-77
2024/03/25 01:56:00;;;;;;;2.43;1.60;;;;;;;;;;5091486;28;20457;-76
2024/03/25 01:58:26;;;;;;;2.97;1.73;;;;;;;;;;5090908;28;20409;-76
2024/03/25 02:00:53;;;;;;;1.83;1.60;;;;;;;;;;5091116;28;20427;-77
2024/03/25 02:03:19;;;;;;;3.28;1.60;;;;;;;;;;5091387;28;20374;-77
2024/03/25 02:05:45;;;;;;;2.57;1.73;;;;;;;;;;5094286;28;20385;-77
2024/03/25 02:08:12;;;;;;;3.80;2.03;;;;;;;;;;5095191;28;20732;-77
2024/03/25 02:10:38;;;;;;;2.95;1.50;;;;;;;;;;5095105;28;20807;-77
2024/03/25 02:13:04;;;;;;;1.67;1.37;;;;;;;;;;5095426;28;20460;-77
2024/03/25 02:15:30;;;;;;;2.63;1.25;;;;;;;;;;5095159;28;20378;-77
2024/03/25 02:17:56;;;;;;;2.65;1.33;;;;;;;;;;5095021;28;20531;-77
2024/03/25 02:20:22;;;;;;;3.10;1.60;;;;;;;;;;5095092;28;20493;-77
2024/03/25 02:22:48;;;;;;;2.65;1.52;;;;;;;;;;5094646;28;20389;-77
2024/03/25 02:25:14;;;;;;;2.50;1.30;;;;;;;;;;5093605;28;20376;-77
2024/03/25 02:27:40;;;;;;;1.90;1.20;;;;;;;;;;5094642;28;20481;-77
2024/03/25 02:30:07;;;;;;;2.80;1.20;;;;;;;;;;5094741;28;20473;-77
2024/03/25 02:32:34;;;;;;;3.05;1.48;;;;;;;;;;5094393;28;20412;-77
2024/03/25 02:35:01;;;;;;;2.63;1.50;;;;;;;;;;5094487;28;20382;-77
2024/03/25 02:37:27;;;;;;;2.10;1.40;;;;;;;;;;5094326;28;20885;-77
2024/03/25 02:39:55;;;;;;;2.30;1.50;;;;;;;;;;5094473;28;20428;-77
2024/03/25 02:42:21;;;;;;;3.25;1.55;;;;;;;;;;5094843;28;20392;-77
2024/03/25 02:44:47;;;;;;;2.58;1.40;;;;;;;;;;5094772;28;20377;-77
2024/03/25 02:47:13;;;;;;;2.50;1.60;;;;;;;;;;5094788;28;20934;-77
2024/03/25 02:49:39;;;;;;;1.92;1.33;;;;;;;;;;5094525;28;20903;-77
2024/03/25 02:52:06;;;;;;;2.00;1.57;;;;;;;;;;5094630;28;20473;-77
2024/03/25 02:54:31;;;;;;;2.97;1.70;;;;;;;;;;5094532;28;20385;-77
2024/03/25 02:56:57;;;;;;;2.90;1.73;;;;;;;;;;5094211;28;20436;-77
2024/03/25 02:59:23;;;;;;;2.45;1.60;;;;;;;;;;5094286;28;20374;-77
2024/03/25 03:01:49;;;;;;;1.90;1.65;;;;;;;;;;5094145;28;20378;-77
2024/03/25 03:04:15;;;;;;;2.70;1.63;;;;;;;;;;5094143;28;20378;-77
2024/03/25 03:06:41;;;;;;;2.05;1.70;;;;;;;;;;5093897;28;20386;-77
2024/03/25 03:09:07;;;;;;;2.73;1.60;;;;;;;;;;5094020;28;20464;-77
2024/03/25 03:11:33;;;;;;;2.90;1.50;;;;;;;;;;5093984;28;20743;-77
2024/03/25 03:13:59;;;;;;;1.65;1.20;;;;;;;;;;5093794;28;20374;-77
2024/03/25 03:16:25;;;;;;;1.50;1.30;;;;;;;;;;5092884;28;20459;-77
2024/03/25 03:18:51;;;;;;;2.70;1.65;;;;;;;;;;5093790;28;20374;-77
2024/03/25 03:21:17;;;;;;;2.67;1.70;;;;;;;;;;5094186;28;20469;-77
2024/03/25 03:23:43;;;;;;;2.60;1.50;;;;;;;;;;5094102;28;20862;-77
2024/03/25 03:26:09;;;;;;;2.83;1.58;;;;;;;;;;5092962;28;20414;-77
2024/03/25 03:28:35;;;;;;;2.17;1.75;;;;;;;;;;5093370;28;20387;-77
2024/03/25 03:31:01;;;;;;;2.10;1.50;;;;;;;;;;5093557;28;20417;-77
2024/03/25 03:33:27;;;;;;;2.50;1.57;;;;;;;;;;5093794;28;20393;-77
2024/03/25 03:35:55;;;;;;;2.50;1.92;;;;;;;;;;5093664;28;20379;-77
2024/03/25 03:38:21;;;;;;;2.70;1.83;;;;;;;;;;5093251;28;20402;-77
2024/03/25 03:40:57;;;;;;;2.97;1.70;;;;;;;;;;5093419;28;20717;-77
2024/03/25 03:43:23;;;;;;;2.35;1.58;;;;;;;;;;5093181;28;20378;-77
2024/03/25 03:45:49;;;;;;;3.05;1.83;;;;;;;;;;5093181;28;20423;-77
2024/03/25 03:48:15;;;;;;;2.63;1.47;;;;;;;;;;5092991;28;20385;-77
2024/03/25 03:50:42;;;;;;;3.25;1.70;;;;;;;;;;5093215;28;20377;-77
2024/03/25 03:53:08;;;;;;;2.25;1.40;;;;;;;;;;5092956;28;20420;-77
2024/03/25 03:55:34;;;;;;;2.03;1.60;;;;;;;;;;5093221;28;20402;-77
2024/03/25 03:58:00;;;;;;;2.95;2.03;;;;;;;;;;5093196;28;20809;-77
2024/03/25 04:00:26;;;;;;;2.70;1.60;;;;;;;;;;5093296;28;20474;-77
2024/03/25 04:02:52;;;;;;;2.25;1.70;;;;;;;;;;5093357;28;20374;-77
2024/03/25 04:05:18;;;;;;;2.45;1.75;;;;;;;;;;5092826;28;20640;-77
2024/03/25 04:07:44;;;;;;;2.83;1.63;;;;;;;;;;5093104;28;20439;-77
2024/03/25 04:10:10;;;;;;;3.00;1.60;;;;;;;;;;5092959;28;20384;-77
2024/03/25 04:12:39;;;;;;;2.78;1.60;;;;;;;;;;5092843;28;20420;-77
2024/03/25 04:15:05;;;;;;;2.75;1.60;;;;;;;;;;5092740;28;20386;-77
2024/03/25 04:17:31;;;;;;;2.75;1.85;;;;;;;;;;5092526;28;20394;-77
2024/03/25 04:20:08;;;;;;;2.75;1.80;;;;;;;;;;5092655;28;20760;-77
2024/03/25 04:22:34;;;;;;;2.70;1.70;;;;;;;;;;5092478;28;20753;-77
2024/03/25 04:25:00;;;;;;;3.25;2.00;;;;;;;;;;5092363;28;20413;-77
2024/03/25 04:27:26;;;;;;;4.10;2.80;;;;;;;;;;5091221;28;20752;-77
2024/03/25 04:29:52;;;;;;;3.33;1.90;;;;;;;;;;5092221;28;20417;-77
2024/03/25 04:32:18;;;;;;;2.40;1.88;;;;;;;;;;5091997;28;20402;-77
2024/03/25 04:34:44;;;;;;;2.25;1.90;;;;;;;;;;5091318;28;20494;-77
2024/03/25 04:37:11;;;;;;;2.55;1.80;;;;;;;;;;5092660;28;20406;-77
2024/03/25 04:39:37;;;;;;;3.83;2.13;;;;;;;;;;5092431;28;20815;-77
2024/03/25 04:42:03;;;;;;;3.38;2.00;;;;;;;;;;5092587;28;20382;-77
2024/03/25 04:44:29;;;;;;;3.75;2.25;;;;;;;;;;5092540;28;20509;-77
2024/03/25 04:46:55;;;;;;;3.33;1.80;;;;;;;;;;5092285;28;20907;-77
2024/03/25 04:49:21;;;;;;;2.38;2.17;;;;;;;;;;5092190;28;20511;-77
2024/03/25 04:51:47;;;;;;;2.33;1.80;;;;;;;;;;5092093;28;20827;-77
2024/03/25 04:54:13;;;;;;;2.47;1.85;;;;;;;;;;5092087;28;20728;-77
2024/03/25 04:56:40;;;;;;;3.20;1.90;;;;;;;;;;5091853;28;20385;-77
2024/03/25 04:59:06;;;;;;;2.55;1.70;;;;;;;;;;5091912;28;20409;-77
2024/03/25 05:01:32;;;;;;;3.00;1.83;;;;;;;;;;5091763;28;20778;-77
2024/03/25 05:03:58;;;;;;;1.92;1.67;;;;;;;;;;5091857;28;20382;-77
2024/03/25 05:06:24;;;;;;;2.05;1.83;;;;;;;;;;5091784;28;20851;-77
2024/03/25 05:08:50;;;;;;;1.93;1.80;;;;;;;;;;5091426;28;20383;-77
2024/03/25 05:11:16;;;;;;;2.13;1.90;;;;;;;;;;5091801;28;20393;-77
2024/03/25 05:13:42;;;;;;;2.33;2.10;;;;;;;;;;5092035;28;20377;-77
2024/03/25 05:16:08;;;;;;;3.70;3.40;;;;;;;;;;5092051;28;21440;-77
2024/03/25 05:18:34;;;;;;;2.80;2.60;;;;;;;;;;5093082;28;20502;-78
2024/03/25 05:21:00;;;;;;;2.30;2.10;;;;;;;;;;5092003;28;20386;-78
2024/03/25 05:23:26;;;;;;;3.10;2.80;;;;;;;;;;5091916;28;20777;-78
2024/03/25 05:25:52;;;;;;;2.47;2.10;;;;;;;;;;5091059;28;20410;-78
2024/03/25 05:28:18;;;;;;;2.40;2.20;;;;;;;;;;5091794;28;20386;-77
2024/03/25 05:30:44;;;;;;;2.38;1.80;;;;;;;;;;5091625;28;20382;-77
2024/03/25 05:33:09;;;;;;;2.35;1.85;;;;;;;;;;5091406;28;20942;-77
2024/03/25 05:35:36;;;;;;;2.10;1.92;;;;;;;;;;5090184;28;20508;-77
2024/03/25 05:38:03;;;;;;;2.72;2.00;;;;;;;;;;5091381;28;20771;-78
2024/03/25 05:40:30;;;;;;;2.80;2.13;;;;;;;;;;5099681;28;20870;-77
2024/03/25 05:42:56;;;;;;;3.00;2.47;;;;;;;;;;5098010;28;20467;-78
2024/03/25 05:45:22;;;;;;;2.38;2.17;;;;;;;;;;5098345;28;20424;-77
2024/03/25 05:47:48;;;;;;;2.83;2.55;;;;;;;;;;5097929;28;20393;-77
2024/03/25 05:50:14;;;;;;;2.97;2.40;;;;;;;;;;5098059;28;20381;-77
2024/03/25 05:52:40;;;;;;;2.30;2.10;;;;;;;;;;5098296;28;20386;-77
2024/03/25 05:55:06;;;;;;;2.75;2.30;;;;;;;;;;5098219;28;20805;-77
2024/03/25 05:57:32;;;;;;;2.60;2.30;;;;;;;;;;5080026;28;20427;-78
2024/03/25 05:59:58;;;;;;;2.42;2.15;;;;;;;;;;5097894;28;20370;-77
2024/03/25 06:02:24;;;;;;;2.95;2.22;;;;;;;;;;5098210;28;20370;-78
2024/03/25 06:04:50;;;;;;;3.33;2.30;;;;;;;;;;5098196;28;20385;-78
2024/03/25 06:07:16;;;;;;;3.15;2.45;;;;;;;;;;5097852;28;20380;-78
2024/03/25 06:09:42;;;;;;;3.38;2.47;;;;;;;;;;5097928;28;20461;-78
2024/03/25 06:12:08;;;;;;;3.00;2.50;;;;;;;;;;5097836;28;20389;-78
2024/03/25 06:14:34;;;;;;;3.88;3.47;;;;;;;;;;5097880;28;20397;-78
2024/03/25 06:17:00;;;;;;;4.05;3.47;;;;;;;;;;5097544;28;20875;-77
2024/03/25 06:19:26;;;;;;;4.03;3.60;;;;;;;;;;5097641;28;20381;-78
2024/03/25 06:21:52;;;;;;;4.03;3.50;;;;;;;;;;5097570;28;20805;-77
2024/03/25 06:24:18;;;;;;;4.07;3.67;;;;;;;;;;5097700;28;20370;-77
2024/03/25 06:26:44;;;;;;;4.13;3.70;;;;;;;;;;5097705;28;20365;-78
2024/03/25 06:29:10;;;;;;;3.97;3.50;;;;;;;;;;5097896;28;20445;-78
2024/03/25 06:34:23;;;;;;;4.80;3.60;;;;;;;;;;5097968;28;20389;-78
2024/03/25 06:36:49;;;;;;;3.33;2.88;;;;;;;;;;5098220;28;20410;-78
2024/03/25 06:39:15;;;;;;;3.80;3.42;;;;;;;;;;5098057;28;20406;-78
2024/03/25 06:41:41;;;;;;;3.75;3.15;;;;;;;;;;5098444;28;20382;-78
2024/03/25 06:44:08;;;;;;;3.43;3.13;;;;;;;;;;5098165;28;20385;-78
2024/03/25 06:46:34;;;;;;;4.22;3.60;;;;;;;;;;5097941;28;20386;-79
2024/03/25 06:49:00;;;;;;;3.55;3.13;;;;;;;;;;5098486;28;20370;-78
2024/03/25 06:51:26;;;;;;;4.18;3.40;;;;;;;;;;5094666;28;20754;-78
2024/03/25 06:53:52;;;;;;;4.03;3.58;;;;;;;;;;5094583;28;20855;-78
2024/03/25 06:56:18;;;;;;;3.60;3.22;;;;;;;;;;5094444;28;20780;-78
2024/03/25 06:58:44;;;;;;;3.92;3.40;;;;;;;;;;5094303;28;20872;-78
2024/03/25 07:01:13;;;;;;;3.30;3.00;;;;;;;;;;5094370;28;20381;-78
2024/03/25 07:03:39;;;;;;;3.88;3.05;;;;;;;;;;5094140;28;20381;-78
2024/03/25 07:06:06;;;;;;;4.25;2.95;;;;;;;;;;5094023;28;20390;-78
2024/03/25 07:08:32;;;;;;;4.55;3.13;;;;;;;;;;5093911;28;20378;-78
2024/03/25 07:10:59;;;;;;;3.78;3.30;;;;;;;;;;5093959;28;20814;-78
2024/03/25 07:13:25;;;;;;;3.65;2.97;;;;;;;;;;5093850;28;20390;-78
2024/03/25 07:15:51;;;;;;;3.92;2.72;;;;;;;;;;5095470;28;20373;-80
2024/03/25 07:18:17;;;;;;;4.10;3.08;;;;;;;;;;5095814;28;20402;-80
2024/03/25 07:20:43;;;;;;;5.05;3.03;;;;;;;;;;5096321;28;20382;-80
2024/03/25 07:23:10;;;;;;;3.67;3.22;;;;;;;;;;5096263;28;20378;-80
2024/03/25 07:25:36;;;;;;;3.70;3.40;;;;;;;;;;5096167;28;20519;-80
2024/03/25 07:28:02;;;;;;;3.55;3.00;;;;;;;;;;5095702;28;20385;-80
2024/03/25 07:30:28;;;;;;;3.42;3.10;;;;;;;;;;5095990;28;20390;-80
2024/03/25 07:32:58;;;;;;;3.40;3.10;;;;;;;;;;5095718;28;21045;-80
2024/03/25 07:35:24;;;;;;;4.03;3.28;;;;;;;;;;5095281;28;20488;-80
2024/03/25 07:37:53;;;;;;;4.82;3.38;;;;;;;;;;5095146;28;20409;-80
2024/03/25 07:40:19;;;;;;;3.72;3.30;;;;;;;;;;5095658;28;20374;-80
2024/03/25 07:42:45;;;;;;;4.20;3.00;;;;;;;;;;5095609;28;20732;-80
2024/03/25 07:45:11;;;;;;;4.80;3.45;;;;;;;;;;5095271;28;20412;-79
2024/03/25 07:47:37;;;;;;;5.95;3.17;;;;;;;;;;5095928;28;20427;-80
2024/03/25 07:50:05;;;;;;;3.47;2.88;;;;;;;;;;5095804;28;20408;-80
2024/03/25 07:52:31;;;;;;;5.28;3.78;;;;;;;;;;5095838;28;20457;-80
2024/03/25 07:54:57;;;;;;;6.30;4.40;;;;;;;;;;5095183;28;20405;-79
2024/03/25 07:57:23;;;;;;;6.20;4.15;;;;;;;;;;5094489;28;20414;-80
2024/03/25 07:59:49;;;;;;;6.22;4.50;;;;;;;;;;5095599;28;20385;-80
2024/03/25 08:02:15;;;;;;;4.50;4.00;;;;;;;;;;5094357;28;20413;-80
2024/03/25 08:04:42;;;;;;;4.85;4.10;;;;;;;;;;5094535;28;20384;-80
2024/03/25 08:07:08;;;;;;;4.33;3.13;;;;;;;;;;5094865;28;20386;-80
2024/03/25 08:09:34;;;;;;;3.70;2.58;;;;;;;;;;5095524;28;20381;-80
2024/03/25 08:12:00;;;;;;;4.97;3.67;;;;;;;;;;5095248;28;20778;-80
2024/03/25 08:14:26;;;;;;;5.78;3.65;;;;;;;;;;5095199;28;20874;-80
2024/03/25 08:16:52;;;;;;;4.65;4.07;;;;;;;;;;5102001;28;20412;-80
2024/03/25 08:19:18;;;;;;;4.88;4.38;;;;;;;;;;5097657;28;20880;-80
2024/03/25 08:21:44;;;;;;;4.10;3.60;;;;;;;;;;5113434;28;20384;-80
2024/03/25 08:24:10;;;;;;;4.30;3.28;;;;;;;;;;5107601;28;20862;-80
2024/03/25 08:26:36;;;;;;;3.60;2.97;;;;;;;;;;5104596;28;20393;-80
2024/03/25 08:29:03;;;;;;;5.27;2.90;;;;;;;;;;5094849;28;20382;-80
2024/03/25 08:31:29;;;;;;;5.00;3.47;;;;;;;;;;5076542;28;20402;-80
2024/03/25 08:33:55;;;;;;;3.67;2.40;;;;;;;;;;5109798;28;20468;-81
2024/03/25 08:36:24;;;;;;;4.20;2.80;;;;;;;;;;5115252;28;20795;-80
2024/03/25 08:38:53;;;;;;;3.22;2.55;;;;;;;;;;5114430;28;20408;-80
2024/03/25 08:41:19;;;;;;;3.92;2.80;;;;;;;;;;5114817;28;20384;-80
2024/03/25 08:43:45;;;;;;;2.90;2.70;;;;;;;;;;5103268;28;20445;-80
2024/03/25 08:46:11;;;;;;;4.13;3.20;;;;;;;;;;5093651;28;20453;-80
2024/03/25 08:48:37;;;;;;;7.05;3.15;;;;;;;;;;5094415;28;20381;-80
2024/03/25 08:51:03;;;;;;;4.03;3.63;;;;;;;;;;5108258;28;20869;-80
2024/03/25 08:53:32;;;;;;;4.70;3.40;;;;;;;;;;5093927;28;20423;-80
2024/03/25 08:56:01;;;;;;;4.20;3.90;;;;;;;;;;5094004;28;20462;-80
2024/03/25 08:58:30;;;;;;;4.68;4.00;;;;;;;;;;5093497;28;20496;-80
2024/03/25 09:01:05;;;;;;;4.20;3.50;;;;;;;;;;5093750;28;20374;-80
2024/03/25 09:03:34;;;;;;;4.60;3.10;;;;;;;;;;5093754;28;20715;-80
2024/03/25 09:06:00;;;;;;;4.28;3.50;;;;;;;;;;5093781;28;20465;-80
2024/03/25 09:08:26;;;;;;;3.58;3.20;;;;;;;;;;5094497;28;20389;-80
2024/03/25 09:11:06;;;;;;;4.28;2.65;;;;;;;;;;5094055;28;20378;-80
2024/03/25 09:13:35;;;;;;;3.33;3.00;;;;;;;;;;5093361;28;20860;-80
2024/03/25 09:16:01;;;;;;;2.38;2.17;;;;;;;;;;5094004;28;20390;-80
2024/03/25 09:18:30;;;;;;;2.78;2.28;;;;;;;;;;5094338;28;20455;-80
2024/03/25 09:20:56;;;;;;;4.55;2.58;;;;;;;;;;5094144;28;20382;-80
2024/03/25 09:23:25;;;;;;;4.68;2.53;;;;;;;;;;5093056;28;20381;-80
2024/03/25 09:25:51;;;;;;;3.42;2.17;;;;;;;;;;5113786;28;20383;-80
2024/03/25 09:28:17;;;;;;;4.38;2.88;;;;;;;;;;5108125;28;20381;-80
2024/03/25 09:30:43;;;;;;;4.22;2.15;;;;;;;;;;5112797;28;20392;-80
2024/03/25 09:33:09;;;;;;;5.72;2.47;;;;;;;;;;5103332;28;20432;-80
2024/03/25 09:35:36;;;;;;;2.50;2.17;;;;;;;;;;5094016;28;20381;-80
2024/03/25 09:38:03;;;;;;;5.40;4.10;;;;;;;;;;5094165;28;20467;-80
2024/03/25 09:40:29;;;;;;;10.77;2.90;;;;;;;;;;5093366;28;20414;-80
2024/03/25 09:42:58;;;;;;;4.85;2.80;;;;;;;;;;5093738;28;20454;-80
2024/03/25 09:45:28;;;;;;;4.47;2.85;;;;;;;;;;5093295;28;20388;-80
2024/03/25 09:47:55;;;;;;;3.42;2.75;;;;;;;;;;5093729;28;20381;-80
2024/03/25 09:50:21;;;;;;;3.47;2.00;;;;;;;;;;5094203;28;20406;-80
2024/03/25 09:52:48;;;;;;;3.50;2.58;;;;;;;;;;5094051;28;20860;-80
2024/03/25 09:55:14;;;;;;;3.78;2.40;;;;;;;;;;5093876;28;20848;-80
2024/03/25 09:57:41;;;;;;;3.60;2.40;;;;;;;;;;5094228;28;20406;-80
2024/03/25 10:00:08;;;;;;;4.20;2.60;;;;;;;;;;5094719;28;20466;-80
2024/03/25 10:02:36;;;;;;;5.53;2.67;;;;;;;;;;5093318;28;20378;-80
2024/03/25 10:05:02;;;;;;;3.13;2.50;;;;;;;;;;5093947;28;20728;-80
2024/03/25 10:07:28;;;;;;;3.63;2.40;;;;;;;;;;5093387;28;20443;-81
2024/03/25 10:09:56;;;;;;;3.10;2.40;;;;;;;;;;5093141;28;20438;-80
2024/03/25 10:12:22;;;;;;;4.10;2.80;;;;;;;;;;5084239;28;20381;-80
2024/03/25 10:14:48;;;;;;;3.65;2.53;;;;;;;;;;5092813;28;20378;-80
2024/03/25 10:17:14;;;;;;;4.07;2.35;;;;;;;;;;5092800;28;20406;-80
2024/03/25 10:19:40;;;;;;;4.55;2.30;;;;;;;;;;5091923;28;20370;-80
2024/03/25 10:22:06;;;;;;;2.65;2.45;;;;;;;;;;5093323;28;20798;-80
2024/03/25 10:24:45;;;;;;;3.70;2.38;;;;;;;;;;5103601;28;20390;-80
2024/03/25 10:27:21;;;;;;;2.80;2.35;;;;;;;;;;5099444;28;20386;-80
2024/03/25 10:29:47;;;;;;;6.00;2.80;;;;;;;;;;5098153;28;20925;-80
2024/03/25 10:32:14;;;;;;;4.80;2.72;;;;;;;;;;5097296;28;20493;-81
2024/03/25 10:34:40;;;;;;;3.67;2.10;;;;;;;;;;5097754;28;20374;-80
2024/03/25 10:37:07;;;;;;;2.95;2.50;;;;;;;;;;5097437;28;20402;-80
2024/03/25 10:39:34;;;;;;;4.47;2.60;;;;;;;;;;5097161;28;20412;-81
2024/03/25 10:42:02;;;;;;;2.15;1.95;;;;;;;;;;5097245;28;20370;-81
2024/03/25 10:44:29;;;;;;;2.97;2.28;;;;;;;;;;5096398;28;20371;-81
2024/03/25 10:47:05;;;;;;;2.72;2.40;;;;;;;;;;5097373;28;20438;-80
2024/03/25 10:49:39;;;;;;;1.90;1.70;;;;;;;;;;5097926;28;20406;-80
2024/03/25 10:52:05;;;;;;;2.47;1.60;;;;;;;;;;5097402;28;20747;-80
2024/03/25 10:54:31;;;;;;;2.00;1.73;;;;;;;;;;5097223;28;20464;-80
2024/03/25 10:57:03;;;;;;;4.65;1.70;;;;;;;;;;5097044;28;20457;-80
2024/03/25 10:59:30;;;;;;;2.85;2.00;;;;;;;;;;5096742;28;20376;-80
2024/03/25 11:01:56;;;;;;;2.40;1.83;;;;;;;;;;5097319;28;20380;-81
2024/03/25 11:04:23;;;;;;;2.83;1.52;;;;;;;;;;5096672;28;20382;-80
2024/03/25 11:06:50;;;;;;;3.28;1.58;;;;;;;;;;5096210;28;20457;-80
2024/03/25 11:09:25;;;;;;;2.47;1.70;;;;;;;;;;5095953;28;20855;-81
2024/03/25 11:11:53;;;;;;;1.80;1.50;;;;;;;;;;5096015;28;20397;-80
2024/03/25 11:14:19;;;;;;;4.13;2.10;;;;;;;;;;5095966;28;20495;-80
2024/03/25 11:16:51;;;;;;;3.25;1.88;;;;;;;;;;5101698;28;20869;-80
2024/03/25 11:19:18;;;;;;;3.15;1.70;;;;;;;;;;5103859;28;20420;-80
2024/03/25 11:21:44;;;;;;;2.88;1.80;;;;;;;;;;5096292;28;20385;-80
2024/03/25 11:24:10;;;;;;;2.28;1.48;;;;;;;;;;5103148;28;20875;-81
2024/03/25 11:26:40;;;;;;;3.30;1.75;;;;;;;;;;5100221;28;20909;-81
2024/03/25 11:29:06;;;;;;;2.63;1.48;;;;;;;;;;5096074;28;20420;-80
2024/03/25 11:31:33;;;;;;;2.53;1.70;;;;;;;;;;5096138;28;20942;-80
2024/03/25 11:34:08;;;;;;;2.88;1.30;;;;;;;;;;5096287;28;20425;-80
2024/03/25 11:36:34;;;;;;;1.90;1.40;;;;;;;;;;5095493;28;20386;-80
2024/03/25 11:39:04;;;;;;;2.17;1.25;;;;;;;;;;5094774;28;20406;-80
2024/03/25 11:41:31;;;;;;;2.20;1.00;;;;;;;;;;5095518;28;20762;-81
2024/03/25 11:43:57;;;;;;;2.20;1.10;;;;;;;;;;5095575;28;20465;-80
2024/03/25 11:46:25;;;;;;;1.90;1.10;;;;;;;;;;5096238;28;20413;-81
2024/03/25 11:48:51;;;;;;;2.20;1.08;;;;;;;;;;5095913;28;20382;-81
2024/03/25 11:51:17;;;;;;;2.05;0.98;;;;;;;;;;5096111;28;20765;-80
2024/03/25 11:53:43;;;;;;;1.75;0.95;;;;;;;;;;5096223;28;20378;-81
2024/03/25 11:56:10;;;;;;;1.90;0.90;;;;;;;;;;5095967;28;20378;-81
2024/03/25 11:58:36;;;;;;;2.80;1.20;;;;;;;;;;5096145;28;20402;-81
2024/03/25 12:01:02;;;;;;;2.28;1.50;;;;;;;;;;5096493;28;20872;-81
2024/03/25 12:03:28;;;;;;;1.67;0.98;;;;;;;;;;5095443;28;20731;-81
2024/03/25 12:05:55;;;;;;;1.75;0.90;;;;;;;;;;5096935;28;20863;-81
2024/03/25 12:08:25;;;;;;;1.23;0.70;;;;;;;;;;5097636;28;20447;-81
2024/03/25 12:13:40;;;;;;;1.27;0.68;;;;;;;;;;5083043;28;20759;-81
2024/03/25 12:16:07;;;;;;;1.15;0.60;;;;;;;;;;5094316;28;20867;-83
2024/03/25 12:18:34;;;;;;;1.27;0.70;;;;;;;;;;5094753;28;20451;-82
2024/03/25 12:21:02;;;;;;;1.90;0.70;;;;;;;;;;5096122;28;20408;-82
2024/03/25 12:23:32;;;;;;;1.60;0.77;;;;;;;;;;5098346;28;20374;-82
2024/03/25 12:26:02;;;;;;;1.33;0.70;;;;;;;;;;5110971;28;20374;-82
2024/03/25 12:28:28;;;;;;;1.17;0.57;;;;;;;;;;5097505;28;20448;-84
2024/03/25 12:30:56;;;;;;;1.30;0.70;;;;;;;;;;5097083;28;20712;-83
2024/03/25 12:33:22;;;;;;;3.40;0.73;;;;;;;;;;5097782;28;20370;-83
2024/03/25 12:35:49;;;;;;;0.65;0.35;;;;;;;;;;5098194;28;20382;-84
2024/03/25 12:38:25;;;;;;;0.77;0.43;;;;;;;;;;5081387;28;20821;-83
2024/03/25 12:40:52;;;;;;;3.23;0.80;;;;;;;;;;5100181;28;20390;-83
2024/03/25 12:43:18;;;;;;;1.17;0.60;;;;;;;;;;5099430;28;20386;-83
2024/03/25 12:45:44;;;;;;;1.67;0.70;;;;;;;;;;5102314;28;20378;-83
2024/03/25 12:48:10;;;;;;;1.33;0.60;;;;;;;;;;5102619;28;20867;-83
2024/03/25 12:50:36;;;;;;;0.95;0.63;;;;;;;;;;5103450;28;20461;-84
2024/03/25 12:53:02;;;;;;;1.42;0.70;;;;;;;;;;5079036;28;20393;-82
2024/03/25 12:55:29;;;;;;;2.45;0.90;;;;;;;;;;5095000;28;20776;-82
2024/03/25 12:57:55;;;;;;;1.25;0.65;;;;;;;;;;5095484;28;20756;-82
2024/03/25 13:00:21;;;;;;;2.38;0.60;;;;;;;;;;5077804;28;20382;-80
2024/03/25 13:02:47;;;;;;;1.55;0.80;;;;;;;;;;5096667;28;20382;-81
2024/03/25 13:05:13;;;;;;;2.78;0.60;;;;;;;;;;5097346;28;20386;-83
2024/03/25 13:07:39;;;;;;;1.42;0.73;;;;;;;;;;5096350;28;20374;-82
2024/03/25 13:10:05;;;;;;;0.80;0.60;;;;;;;;;;5096501;28;20808;-81
2024/03/25 13:12:31;;;;;;;1.00;0.60;;;;;;;;;;5097585;28;20386;-81
2024/03/25 13:14:58;;;;;;;1.42;0.50;;;;;;;;;;5096275;28;20386;-81
2024/03/25 13:17:24;;;;;;;0.88;0.40;;;;;;;;;;5095203;28;20404;-81
2024/03/25 13:19:50;;;;;;;1.10;0.55;;;;;;;;;;5094456;28;20426;-81
2024/03/25 13:22:17;;;;;;;0.60;0.50;;;;;;;;;;5103870;28;20376;-82
2024/03/25 13:24:43;;;;;;;1.50;0.60;;;;;;;;;;5111763;28;20382;-82
2024/03/25 13:27:09;;;;;;;1.15;0.40;;;;;;;;;;5097532;28;20437;-82
2024/03/25 13:29:37;;;;;;;40.50;2.87;;;;;;;;;;5095010;28;20378;-80
2024/03/25 13:32:03;;;;;;;0.82;0.40;;;;;;;;;;5109167;28;20431;-80
2024/03/25 13:34:29;;;;;;;1.08;0.43;;;;;;;;;;5093445;28;20389;-80
2024/03/25 13:36:55;;;;;;;0.93;0.50;;;;;;;;;;5094132;28;20858;-81
2024/03/25 13:39:21;;;;;;;0.57;0.38;;;;;;;;;;5093131;28;20378;-80
2024/03/25 13:41:48;;;;;;;1.77;0.57;;;;;;;;;;5094494;28;20374;-80
2024/03/25 13:44:14;;;;;;;0.82;0.45;;;;;;;;;;5078234;28;20378;-80
2024/03/25 13:46:40;;;;;;;1.37;0.60;;;;;;;;;;5093864;28;20390;-80
2024/03/25 13:49:05;;;;;;;0.98;0.50;;;;;;;;;;5094857;28;20851;-80
2024/03/25 13:51:31;;;;;;;1.02;0.45;;;;;;;;;;5094911;28;20382;-81
2024/03/25 13:53:58;;;;;;;1.45;0.88;;;;;;;;;;5110506;28;20384;-81
2024/03/25 13:56:24;;;;;;;41.90;29.02;;;;;;;;;;5095711;28;20402;-81
2024/03/25 13:58:50;;;;;;;1.30;0.50;;;;;;;;;;5095809;28;20891;-81
2024/03/25 14:01:16;;;;;;;0.82;0.40;;;;;;;;;;5099922;28;20405;-83
2024/03/25 14:03:42;;;;;;;0.90;0.50;;;;;;;;;;5099159;28;20370;-80
2024/03/25 14:06:08;;;;;;;0.95;0.55;;;;;;;;;;5099493;28;20382;-84
2024/03/25 14:08:34;;;;;;;1.73;0.77;;;;;;;;;;5098929;28;20755;-82
2024/03/25 14:11:00;;;;;;;0.80;0.40;;;;;;;;;;5092134;28;20379;-82
2024/03/25 14:13:27;;;;;;;0.63;0.30;;;;;;;;;;5083383;28;20393;-83
2024/03/25 14:15:53;;;;;;;0.70;0.40;;;;;;;;;;5099305;28;20500;-82
2024/03/25 14:18:19;;;;;;;1.48;0.40;;;;;;;;;;5100211;28;20425;-81
2024/03/25 14:20:44;;;;;;;0.60;0.40;;;;;;;;;;5101124;28;20366;-81
2024/03/25 14:23:10;;;;;;;0.43;0.30;;;;;;;;;;5100110;28;20385;-81
2024/03/25 14:25:38;;;;;;;1.55;1.02;;;;;;;;;;5110240;28;20369;-83
2024/03/25 14:28:04;;;;;;;0.47;0.47;;;;;;;;;;5099374;28;20374;-82
2024/03/25 14:30:30;;;;;;;0.63;0.40;;;;;;;;;;5100233;28;20382;-82
2024/03/25 14:32:56;;;;;;;0.80;0.40;;;;;;;;;;5099855;28;20394;-81
2024/03/25 14:35:22;;;;;;;0.65;0.32;;;;;;;;;;5098565;28;20414;-81
2024/03/25 14:37:48;;;;;;;0.97;0.30;;;;;;;;;;5099511;28;20418;-81
2024/03/25 14:40:17;;;;;;;0.70;0.50;;;;;;;;;;5100433;28;20386;-81
2024/03/25 14:42:43;;;;;;;1.25;0.50;;;;;;;;;;5099799;28;20453;-81
2024/03/25 14:45:09;;;;;;;1.15;0.50;;;;;;;;;;5099849;28;20382;-81